Private Wetterstation Sandau
Wetterdaten: Donnerstag, 29.11.2012
Datum Zeit Temp. A. Feuchte A. Luftdruck Regen Wind Richtung Richtung Taupunkt Windchill
29.11.2012 00:01 4,6 C 92 % 1003,0 hPa 0,0 l/m 8,6 km/h (2 Bft) N-NO 22 3,4 C 2,5 C
29.11.2012 00:06 4,6 C 92 % 1002,8 hPa 0,0 l/m 3,6 km/h (1 Bft) N-NO 22 3,4 C 4,6 C
29.11.2012 00:11 4,5 C 92 % 1002,7 hPa 0,0 l/m 6,1 km/h (2 Bft) N-NO 22 3,3 C 3,1 C
29.11.2012 00:16 4,5 C 92 % 1002,7 hPa 0,0 l/m 4,0 km/h (1 Bft) N 360 3,3 C 4,5 C
29.11.2012 00:21 4,5 C 92 % 1002,5 hPa 0,0 l/m 5,0 km/h (1 Bft) N-NO 22 3,3 C 3,5 C
29.11.2012 00:26 4,5 C 92 % 1002,3 hPa 0,0 l/m 2,5 km/h (1 Bft) NO 45 3,3 C 4,5 C
29.11.2012 00:31 4,5 C 92 % 1002,4 hPa 0,0 l/m 4,7 km/h (1 Bft) N-NO 22 3,3 C 3,6 C
29.11.2012 00:36 4,5 C 93 % 1002,3 hPa 0,0 l/m 3,2 km/h (1 Bft) NO 45 3,5 C 4,5 C
29.11.2012 00:41 4,4 C 93 % 1002,3 hPa 0,0 l/m 6,1 km/h (2 Bft) N 360 3,4 C 3,0 C
29.11.2012 00:46 4,4 C 93 % 1002,2 hPa 0,0 l/m 9,4 km/h (2 Bft) N-NO 22 3,4 C 2,1 C
29.11.2012 00:51 4,4 C 93 % 1002,3 hPa 0,0 l/m 5,8 km/h (2 Bft) N-NO 22 3,4 C 3,1 C
29.11.2012 00:56 4,4 C 93 % 1001,9 hPa 0,0 l/m 4,7 km/h (1 Bft) NO 45 3,4 C 3,5 C
29.11.2012 01:01 4,4 C 93 % 1002,2 hPa 0,0 l/m 5,8 km/h (2 Bft) N-NW 337 3,4 C 3,1 C
29.11.2012 01:06 4,4 C 93 % 1002,2 hPa 0,0 l/m 5,4 km/h (1 Bft) N-NO 22 3,4 C 3,2 C
29.11.2012 01:11 4,4 C 93 % 1002,1 hPa 0,0 l/m 5,8 km/h (2 Bft) N 360 3,4 C 3,1 C
29.11.2012 01:16 4,4 C 93 % 1002,2 hPa 0,0 l/m 4,7 km/h (1 Bft) N-NO 22 3,4 C 3,5 C
29.11.2012 01:21 4,4 C 93 % 1002,2 hPa 0,0 l/m 5,0 km/h (1 Bft) N 360 3,4 C 3,4 C
29.11.2012 01:26 4,5 C 93 % 1002,2 hPa 0,0 l/m 2,2 km/h (1 Bft) N-NO 22 3,5 C 4,5 C
29.11.2012 01:31 4,5 C 93 % 1001,9 hPa 0,0 l/m 4,3 km/h (1 Bft) N 360 3,5 C 4,5 C
29.11.2012 01:36 4,5 C 93 % 1002,1 hPa 0,0 l/m 2,5 km/h (1 Bft) N-NO 22 3,5 C 4,5 C
29.11.2012 01:41 4,5 C 93 % 1002,0 hPa 0,0 l/m 5,4 km/h (1 Bft) N-NO 22 3,5 C 3,4 C
29.11.2012 01:46 4,5 C 93 % 1002,0 hPa 0,0 l/m 3,6 km/h (1 Bft) N 360 3,5 C 4,5 C
29.11.2012 01:51 4,5 C 93 % 1002,0 hPa 0,0 l/m 7,9 km/h (2 Bft) N 360 3,5 C 2,6 C
29.11.2012 01:56 4,5 C 93 % 1001,8 hPa 0,0 l/m 11,9 km/h (2 Bft) N-NO 22 3,5 C 1,7 C
29.11.2012 02:01 4,6 C 93 % 1001,8 hPa 0,0 l/m 4,7 km/h (1 Bft) N-NO 22 3,6 C 3,8 C
29.11.2012 02:06 4,6 C 93 % 1001,8 hPa 0,0 l/m 2,2 km/h (1 Bft) N 360 3,6 C 4,6 C
29.11.2012 02:11 4,6 C 93 % 1001,9 hPa 0,0 l/m 6,1 km/h (2 Bft) N-NO 22 3,6 C 3,2 C
29.11.2012 02:16 4,6 C 93 % 1001,8 hPa 0,0 l/m 5,8 km/h (2 Bft) N 360 3,6 C 3,3 C
29.11.2012 02:21 4,6 C 93 % 1001,5 hPa 0,0 l/m 13,0 km/h (3 Bft) N 360 3,6 C 1,6 C
29.11.2012 02:26 4,6 C 93 % 1001,5 hPa 0,0 l/m 3,2 km/h (1 Bft) N 360 3,6 C 4,6 C
29.11.2012 02:31 4,6 C 93 % 1001,5 hPa 0,0 l/m 3,6 km/h (1 Bft) N-NO 22 3,6 C 4,6 C
29.11.2012 02:36 4,6 C 93 % 1001,5 hPa 0,0 l/m 9,4 km/h (2 Bft) N 360 3,6 C 2,3 C
29.11.2012 02:41 4,6 C 93 % 1001,4 hPa 0,0 l/m 5,8 km/h (2 Bft) N-NO 22 3,6 C 3,3 C
29.11.2012 02:46 4,6 C 93 % 1001,4 hPa 0,0 l/m 7,6 km/h (2 Bft) N-NO 22 3,6 C 2,8 C
29.11.2012 02:51 4,6 C 93 % 1001,2 hPa 0,0 l/m 6,1 km/h (2 Bft) N-NW 337 3,6 C 3,2 C
29.11.2012 02:56 4,6 C 93 % 1001,2 hPa 0,0 l/m 8,3 km/h (2 Bft) N-NO 22 3,6 C 2,6 C
29.11.2012 03:01 4,6 C 93 % 1001,2 hPa 0,0 l/m 4,0 km/h (1 Bft) N 360 3,6 C 4,6 C
29.11.2012 03:06 4,6 C 93 % 1001,1 hPa 0,0 l/m 6,8 km/h (2 Bft) N 360 3,6 C 3,0 C
29.11.2012 03:11 4,6 C 93 % 1001,0 hPa 0,0 l/m 10,1 km/h (2 Bft) N-NO 22 3,6 C 2,2 C
29.11.2012 03:16 4,6 C 93 % 1000,7 hPa 0,0 l/m 6,1 km/h (2 Bft) NO 45 3,6 C 3,2 C
29.11.2012 03:21 4,7 C 93 % 1000,6 hPa 0,0 l/m 10,8 km/h (2 Bft) N-NO 22 3,7 C 2,1 C
29.11.2012 03:26 4,7 C 93 % 1000,6 hPa 0,0 l/m 11,9 km/h (2 Bft) N-NO 22 3,7 C 1,9 C
29.11.2012 03:31 4,7 C 93 % 1000,5 hPa 0,0 l/m 16,9 km/h (3 Bft) N-NO 22 3,7 C 1,1 C
29.11.2012 03:36 4,7 C 93 % 1000,5 hPa 0,0 l/m 7,9 km/h (2 Bft) N-NO 22 3,7 C 2,8 C
29.11.2012 03:41 4,7 C 93 % 1000,6 hPa 0,0 l/m 6,5 km/h (2 Bft) N-NO 22 3,7 C 3,2 C
29.11.2012 03:46 4,7 C 93 % 1000,5 hPa 0,0 l/m 11,2 km/h (2 Bft) N-NO 22 3,7 C 2,0 C
29.11.2012 03:51 4,8 C 93 % 1000,4 hPa 0,0 l/m 14,8 km/h (3 Bft) N 360 3,8 C 1,5 C
29.11.2012 03:56 4,8 C 93 % 1000,4 hPa 0,0 l/m 19,1 km/h (3 Bft) N 360 3,8 C 0,9 C
29.11.2012 04:01 4,8 C 93 % 1000,3 hPa 0,0 l/m 5,0 km/h (1 Bft) N-NO 22 3,8 C 3,9 C
29.11.2012 04:06 4,8 C 93 % 1000,2 hPa 0,0 l/m 3,6 km/h (1 Bft) N 360 3,8 C 4,8 C
29.11.2012 04:11 4,8 C 93 % 1000,3 hPa 0,0 l/m 7,6 km/h (2 Bft) N 360 3,8 C 3,0 C
29.11.2012 04:16 4,8 C 93 % 1000,1 hPa 0,0 l/m 6,8 km/h (2 Bft) N-NO 22 3,8 C 3,2 C
29.11.2012 04:21 4,8 C 93 % 1000,0 hPa 0,0 l/m 9,4 km/h (2 Bft) N-NO 22 3,8 C 2,6 C
29.11.2012 04:26 4,9 C 93 % 1000,0 hPa 0,0 l/m 11,5 km/h (2 Bft) N-NO 22 3,9 C 2,2 C
29.11.2012 04:31 4,9 C 93 % 999,9 hPa 0,0 l/m 4,7 km/h (1 Bft) N-NO 22 3,9 C 4,1 C
29.11.2012 04:36 4,9 C 93 % 999,8 hPa 0,0 l/m 10,8 km/h (2 Bft) N 360 3,9 C 2,4 C
29.11.2012 04:41 4,9 C 93 % 999,8 hPa 0,0 l/m 14,4 km/h (3 Bft) N-NO 22 3,9 C 1,7 C
29.11.2012 04:46 4,9 C 93 % 999,8 hPa 0,0 l/m 8,6 km/h (2 Bft) N-NO 22 3,9 C 2,9 C
29.11.2012 04:51 4,9 C 93 % 999,7 hPa 0,0 l/m 5,0 km/h (1 Bft) N 360 3,9 C 4,0 C
29.11.2012 04:56 4,9 C 93 % 999,8 hPa 0,0 l/m 6,5 km/h (2 Bft) N 360 3,9 C 3,4 C
29.11.2012 05:01 4,9 C 93 % 999,7 hPa 0,0 l/m 6,1 km/h (2 Bft) N-NO 22 3,9 C 3,6 C
29.11.2012 05:06 4,9 C 93 % 999,6 hPa 0,0 l/m 16,9 km/h (3 Bft) N-NO 22 3,9 C 1,3 C
29.11.2012 05:11 4,9 C 93 % 999,6 hPa 0,0 l/m 16,9 km/h (3 Bft) N 360 3,9 C 1,3 C
29.11.2012 05:16 4,9 C 93 % 999,5 hPa 0,0 l/m 13,0 km/h (3 Bft) NO 45 3,9 C 2,0 C
29.11.2012 05:21 4,8 C 93 % 999,5 hPa 0,0 l/m 16,2 km/h (3 Bft) N 360 3,8 C 1,3 C
29.11.2012 05:26 4,8 C 92 % 999,5 hPa 0,0 l/m 4,0 km/h (1 Bft) N-NO 22 3,6 C 4,8 C
29.11.2012 05:31 4,8 C 92 % 999,4 hPa 0,0 l/m 5,4 km/h (1 Bft) NO 45 3,6 C 3,7 C
29.11.2012 05:36 4,8 C 92 % 999,5 hPa 0,0 l/m 12,6 km/h (3 Bft) N-NO 22 3,6 C 1,9 C
29.11.2012 05:41 4,8 C 92 % 999,3 hPa 0,0 l/m 7,6 km/h (2 Bft) N-NO 22 3,6 C 3,0 C
29.11.2012 05:46 4,8 C 92 % 999,4 hPa 0,0 l/m 4,7 km/h (1 Bft) N-NO 22 3,6 C 4,0 C
29.11.2012 05:51 4,8 C 91 % 999,3 hPa 0,0 l/m 6,1 km/h (2 Bft) N-NO 22 3,5 C 3,5 C
29.11.2012 05:56 4,8 C 91 % 999,3 hPa 0,0 l/m 7,2 km/h (2 Bft) N-NO 22 3,5 C 3,1 C
29.11.2012 06:01 4,7 C 91 % 999,2 hPa 0,0 l/m 9,7 km/h (2 Bft) N 360 3,4 C 2,4 C
29.11.2012 06:06 4,7 C 91 % 999,3 hPa 0,0 l/m 11,2 km/h (2 Bft) N 360 3,4 C 2,0 C
29.11.2012 06:11 4,6 C 91 % 999,3 hPa 0,0 l/m 9,0 km/h (2 Bft) O-NO 67 3,3 C 2,4 C
29.11.2012 06:16 4,6 C 91 % 999,4 hPa 0,0 l/m 10,8 km/h (2 Bft) N-NO 22 3,3 C 2,0 C
29.11.2012 06:21 4,6 C 91 % 999,3 hPa 0,0 l/m 6,1 km/h (2 Bft) N 360 3,3 C 3,2 C
29.11.2012 06:26 4,6 C 91 % 999,3 hPa 0,0 l/m 10,8 km/h (2 Bft) N 360 3,3 C 2,0 C
29.11.2012 06:31 4,5 C 91 % 999,3 hPa 0,0 l/m 9,0 km/h (2 Bft) N 360 3,2 C 2,3 C
29.11.2012 06:36 4,5 C 91 % 999,3 hPa 0,0 l/m 12,2 km/h (2 Bft) N 360 3,2 C 1,6 C
29.11.2012 06:41 4,5 C 91 % 999,4 hPa 0,0 l/m 13,0 km/h (3 Bft) N-NO 22 3,2 C 1,5 C
29.11.2012 06:46 4,5 C 91 % 999,3 hPa 0,0 l/m 7,2 km/h (2 Bft) N 360 3,2 C 2,8 C
29.11.2012 06:51 4,5 C 91 % 999,3 hPa 0,0 l/m 9,7 km/h (2 Bft) N-NO 22 3,2 C 2,1 C
29.11.2012 06:56 4,4 C 91 % 999,2 hPa 0,0 l/m 9,7 km/h (2 Bft) N-NO 22 3,1 C 2,0 C
29.11.2012 07:01 4,4 C 91 % 999,2 hPa 0,0 l/m 5,8 km/h (2 Bft) N-NO 22 3,1 C 3,1 C
29.11.2012 07:06 4,4 C 91 % 999,1 hPa 0,0 l/m 14,0 km/h (3 Bft) N-NO 22 3,1 C 1,2 C
29.11.2012 07:11 4,4 C 91 % 999,3 hPa 0,0 l/m 11,5 km/h (2 Bft) N-NO 22 3,1 C 1,6 C
29.11.2012 07:16 4,4 C 91 % 999,1 hPa 0,0 l/m 11,9 km/h (2 Bft) N-NO 22 3,1 C 1,5 C
29.11.2012 07:21 4,4 C 91 % 999,3 hPa 0,0 l/m 7,9 km/h (2 Bft) N 360 3,1 C 2,5 C
29.11.2012 07:26 4,4 C 91 % 999,2 hPa 0,0 l/m 8,6 km/h (2 Bft) N-NO 22 3,1 C 2,3 C
29.11.2012 07:31 4,3 C 91 % 999,1 hPa 0,0 l/m 8,3 km/h (2 Bft) N-NO 22 3,0 C 2,2 C
29.11.2012 07:36 4,3 C 91 % 999,1 hPa 0,0 l/m 8,3 km/h (2 Bft) N 360 3,0 C 2,2 C
29.11.2012 07:41 4,3 C 91 % 999,2 hPa 0,0 l/m 6,1 km/h (2 Bft) N 360 3,0 C 2,9 C
29.11.2012 07:46 4,3 C 91 % 999,2 hPa 0,0 l/m 9,7 km/h (2 Bft) N-NO 22 3,0 C 1,9 C
29.11.2012 07:51 4,3 C 91 % 999,0 hPa 0,0 l/m 10,1 km/h (2 Bft) N-NO 22 3,0 C 1,8 C
29.11.2012 07:56 4,2 C 91 % 999,0 hPa 0,0 l/m 11,9 km/h (2 Bft) N-NO 22 2,9 C 1,3 C
29.11.2012 08:01 4,2 C 91 % 999,0 hPa 0,0 l/m 7,9 km/h (2 Bft) N-NO 22 2,9 C 2,2 C
29.11.2012 08:06 4,2 C 91 % 999,0 hPa 0,0 l/m 9,7 km/h (2 Bft) N 360 2,9 C 1,8 C
29.11.2012 08:11 4,2 C 91 % 999,0 hPa 0,0 l/m 6,1 km/h (2 Bft) N-NO 22 2,9 C 2,8 C
29.11.2012 08:16 4,2 C 91 % 998,9 hPa 0,0 l/m 6,1 km/h (2 Bft) N 360 2,9 C 2,8 C
29.11.2012 08:21 4,2 C 91 % 998,9 hPa 0,0 l/m 7,2 km/h (2 Bft) N-NO 22 2,9 C 2,4 C
29.11.2012 08:26 4,2 C 91 % 998,8 hPa 0,0 l/m 4,3 km/h (1 Bft) O-NO 67 2,9 C 4,2 C
29.11.2012 08:31 4,2 C 91 % 998,9 hPa 0,0 l/m 9,7 km/h (2 Bft) N-NO 22 2,9 C 1,8 C
29.11.2012 08:36 4,2 C 91 % 998,9 hPa 0,0 l/m 7,9 km/h (2 Bft) N-NO 22 2,9 C 2,2 C
29.11.2012 08:41 4,2 C 91 % 998,7 hPa 0,0 l/m 15,5 km/h (3 Bft) NO 45 2,9 C 0,7 C
29.11.2012 08:46 4,2 C 91 % 998,8 hPa 0,0 l/m 10,1 km/h (2 Bft) N 360 2,9 C 1,7 C
29.11.2012 08:51 4,2 C 91 % 998,8 hPa 0,0 l/m 6,1 km/h (2 Bft) N 360 2,9 C 2,8 C
29.11.2012 08:56 4,2 C 91 % 998,7 hPa 0,0 l/m 12,2 km/h (2 Bft) N-NO 22 2,9 C 1,2 C
29.11.2012 09:01 4,2 C 91 % 998,8 hPa 0,0 l/m 6,1 km/h (2 Bft) N 360 2,9 C 2,8 C
29.11.2012 09:06 4,2 C 91 % 998,9 hPa 0,0 l/m 10,8 km/h (2 Bft) NO 45 2,9 C 1,5 C
29.11.2012 09:11 4,2 C 91 % 998,8 hPa 0,0 l/m 9,4 km/h (2 Bft) N-NO 22 2,9 C 1,8 C
29.11.2012 09:16 4,2 C 92 % 998,7 hPa 0,0 l/m 7,2 km/h (2 Bft) N-NW 337 3,0 C 2,4 C
29.11.2012 09:21 4,2 C 92 % 998,6 hPa 0,0 l/m 12,6 km/h (3 Bft) N-NO 22 3,0 C 1,2 C
29.11.2012 09:26 4,3 C 92 % 998,8 hPa 0,0 l/m 6,5 km/h (2 Bft) N 360 3,1 C 2,8 C
29.11.2012 09:31 4,3 C 92 % 998,6 hPa 0,0 l/m 16,6 km/h (3 Bft) N-NO 22 3,1 C 0,6 C
29.11.2012 09:36 4,3 C 92 % 998,6 hPa 0,0 l/m 8,6 km/h (2 Bft) N-NO 22 3,1 C 2,2 C
29.11.2012 09:41 4,3 C 92 % 998,6 hPa 0,0 l/m 6,8 km/h (2 Bft) N-NO 22 3,1 C 2,7 C
29.11.2012 09:46 4,3 C 92 % 998,6 hPa 0,0 l/m 8,6 km/h (2 Bft) NO 45 3,1 C 2,2 C
29.11.2012 09:51 4,3 C 91 % 998,6 hPa 0,0 l/m 23,0 km/h (4 Bft) N-NO 22 3,0 C -0,2 C
29.11.2012 09:56 4,3 C 91 % 998,6 hPa 0,0 l/m 20,9 km/h (4 Bft) NO 45 3,0 C 0,1 C
29.11.2012 10:01 4,3 C 90 % 998,7 hPa 0,0 l/m 14,4 km/h (3 Bft) N 360 2,8 C 1,0 C
29.11.2012 10:06 4,3 C 90 % 998,6 hPa 0,0 l/m 15,1 km/h (3 Bft) N-NO 22 2,8 C 0,9 C
29.11.2012 10:11 4,2 C 89 % 998,6 hPa 0,0 l/m 4,0 km/h (1 Bft) N 360 2,6 C 4,2 C
29.11.2012 10:16 4,2 C 89 % 998,5 hPa 0,0 l/m 6,5 km/h (2 Bft) O-NO 67 2,6 C 2,6 C
29.11.2012 10:21 4,2 C 89 % 998,6 hPa 0,0 l/m 8,3 km/h (2 Bft) N-NO 22 2,6 C 2,1 C
29.11.2012 10:26 4,2 C 89 % 998,7 hPa 0,0 l/m 7,6 km/h (2 Bft) NO 45 2,6 C 2,3 C
29.11.2012 10:31 4,1 C 89 % 998,6 hPa 0,0 l/m 23,4 km/h (4 Bft) N 360 2,5 C -0,5 C
29.11.2012 10:36 3,9 C 89 % 998,6 hPa 0,0 l/m 9,0 km/h (2 Bft) N-NO 22 2,3 C 1,6 C
29.11.2012 10:41 3,9 C 88 % 998,6 hPa 0,0 l/m 23,4 km/h (4 Bft) O-NO 67 2,1 C -0,7 C
29.11.2012 10:46 3,9 C 88 % 998,5 hPa 0,0 l/m 16,2 km/h (3 Bft) N-NO 22 2,1 C 0,2 C
29.11.2012 10:51 3,9 C 89 % 998,4 hPa 0,0 l/m 13,0 km/h (3 Bft) N-NO 22 2,3 C 0,7 C
29.11.2012 10:56 3,9 C 89 % 998,5 hPa 0,0 l/m 14,0 km/h (3 Bft) N 360 2,3 C 0,6 C
29.11.2012 11:01 3,9 C 89 % 998,5 hPa 0,0 l/m 19,8 km/h (3 Bft) N-NO 22 2,3 C -0,3 C
29.11.2012 11:06 3,9 C 88 % 998,4 hPa 0,0 l/m 15,8 km/h (3 Bft) NO 45 2,1 C 0,3 C
29.11.2012 11:11 3,9 C 88 % 998,4 hPa 0,0 l/m 6,1 km/h (2 Bft) N-NO 22 2,1 C 2,4 C
29.11.2012 11:16 4,1 C 88 % 998,3 hPa 0,0 l/m 12,6 km/h (3 Bft) N-NO 22 2,3 C 1,1 C
29.11.2012 11:21 4,0 C 88 % 998,3 hPa 0,0 l/m 6,8 km/h (2 Bft) N-NO 22 2,2 C 2,3 C
29.11.2012 11:26 4,1 C 88 % 998,3 hPa 0,0 l/m 4,0 km/h (1 Bft) NO 45 2,3 C 4,1 C
29.11.2012 11:31 3,9 C 87 % 998,2 hPa 0,0 l/m 11,2 km/h (2 Bft) N-NO 22 1,9 C 1,1 C
29.11.2012 11:36 3,9 C 88 % 998,3 hPa 0,0 l/m 7,6 km/h (2 Bft) NO 45 2,1 C 2,0 C
29.11.2012 11:41 3,9 C 88 % 998,3 hPa 0,0 l/m 10,1 km/h (2 Bft) N-NO 22 2,1 C 1,3 C
29.11.2012 11:46 3,9 C 88 % 998,2 hPa 0,0 l/m 15,5 km/h (3 Bft) N 360 2,1 C 0,3 C
29.11.2012 11:51 3,9 C 88 % 998,2 hPa 0,0 l/m 10,8 km/h (2 Bft) N-NO 22 2,1 C 1,2 C
29.11.2012 11:56 3,9 C 88 % 998,1 hPa 0,0 l/m 27,0 km/h (4 Bft) N-NO 22 2,1 C -1,1 C
29.11.2012 12:01 3,8 C 88 % 998,1 hPa 0,0 l/m 14,4 km/h (3 Bft) N 360 2,0 C 0,4 C
29.11.2012 12:06 3,8 C 87 % 998,1 hPa 0,0 l/m 16,9 km/h (3 Bft) N 360 1,8 C -0,0 C
29.11.2012 12:11 3,8 C 87 % 998,1 hPa 0,0 l/m 5,4 km/h (1 Bft) O-NO 67 1,8 C 2,6 C
29.11.2012 12:16 3,8 C 87 % 998,1 hPa 0,0 l/m 14,8 km/h (3 Bft) N 360 1,8 C 0,3 C
29.11.2012 12:21 3,8 C 87 % 998,1 hPa 0,0 l/m 4,7 km/h (1 Bft) N-NO 22 1,8 C 2,8 C
29.11.2012 12:26 3,8 C 87 % 998,1 hPa 0,0 l/m 9,7 km/h (2 Bft) N-NO 22 1,8 C 1,3 C
29.11.2012 12:31 3,8 C 87 % 998,2 hPa 0,0 l/m 7,2 km/h (2 Bft) N-NO 22 1,8 C 2,0 C
29.11.2012 12:36 3,8 C 87 % 998,0 hPa 0,0 l/m 7,6 km/h (2 Bft) N-NO 22 1,8 C 1,8 C
29.11.2012 12:41 3,8 C 86 % 998,1 hPa 0,0 l/m 9,7 km/h (2 Bft) N-NO 22 1,7 C 1,3 C
29.11.2012 12:46 3,8 C 86 % 998,1 hPa 0,0 l/m 9,4 km/h (2 Bft) N-NO 22 1,7 C 1,4 C
29.11.2012 12:51 3,7 C 86 % 998,2 hPa 0,0 l/m 11,2 km/h (2 Bft) N 360 1,6 C 0,8 C
29.11.2012 12:56 3,6 C 86 % 998,1 hPa 0,0 l/m 15,5 km/h (3 Bft) N 360 1,5 C -0,1 C
29.11.2012 13:01 3,6 C 86 % 998,0 hPa 0,0 l/m 6,1 km/h (2 Bft) NO 45 1,5 C 2,1 C
29.11.2012 13:06 3,6 C 86 % 998,0 hPa 0,0 l/m 14,8 km/h (3 Bft) N-NO 22 1,5 C 0,1 C
29.11.2012 13:11 3,6 C 86 % 998,1 hPa 0,0 l/m 7,2 km/h (2 Bft) N-NO 22 1,5 C 1,7 C
29.11.2012 13:16 3,6 C 86 % 998,0 hPa 0,0 l/m 6,5 km/h (2 Bft) N-NO 22 1,5 C 1,9 C
29.11.2012 13:21 3,6 C 86 % 998,0 hPa 0,0 l/m 13,3 km/h (3 Bft) N-NO 22 1,5 C 0,3 C
29.11.2012 13:26 3,6 C 86 % 997,8 hPa 0,0 l/m 14,0 km/h (3 Bft) N-NO 22 1,5 C 0,2 C
29.11.2012 13:31 3,6 C 86 % 997,9 hPa 0,0 l/m 4,7 km/h (1 Bft) N-NW 337 1,5 C 2,6 C
29.11.2012 13:36 3,6 C 86 % 998,0 hPa 0,0 l/m 8,3 km/h (2 Bft) N 360 1,5 C 1,4 C
29.11.2012 13:41 3,6 C 86 % 998,0 hPa 0,0 l/m 13,0 km/h (3 Bft) N 360 1,5 C 0,4 C
29.11.2012 13:46 3,6 C 86 % 998,0 hPa 0,0 l/m 7,9 km/h (2 Bft) N-NO 22 1,5 C 1,5 C
29.11.2012 13:51 3,6 C 86 % 998,0 hPa 0,0 l/m 10,4 km/h (2 Bft) N 360 1,5 C 0,9 C
29.11.2012 13:56 3,8 C 87 % 998,0 hPa 0,0 l/m 13,7 km/h (3 Bft) N-NO 22 1,8 C 0,5 C
29.11.2012 14:01 3,8 C 87 % 998,0 hPa 0,0 l/m 6,5 km/h (2 Bft) N-NO 22 1,8 C 2,2 C
29.11.2012 14:06 3,8 C 87 % 997,9 hPa 0,0 l/m 8,6 km/h (2 Bft) N 360 1,8 C 1,6 C
29.11.2012 14:11 3,8 C 87 % 997,9 hPa 0,0 l/m 9,4 km/h (2 Bft) N-NW 337 1,8 C 1,4 C
29.11.2012 14:16 3,8 C 87 % 997,8 hPa 0,0 l/m 6,1 km/h (2 Bft) N 360 1,8 C 2,3 C
29.11.2012 14:21 3,8 C 87 % 997,8 hPa 0,0 l/m 7,9 km/h (2 Bft) N-NO 22 1,8 C 1,8 C
29.11.2012 14:26 3,8 C 87 % 998,0 hPa 0,0 l/m 8,3 km/h (2 Bft) N-NO 22 1,8 C 1,6 C
29.11.2012 14:31 3,8 C 87 % 998,1 hPa 0,0 l/m 7,2 km/h (2 Bft) N-NO 22 1,8 C 2,0 C
29.11.2012 14:36 3,7 C 87 % 998,1 hPa 0,0 l/m 14,4 km/h (3 Bft) N 360 1,7 C 0,2 C
29.11.2012 14:41 3,7 C 87 % 998,0 hPa 0,0 l/m 10,8 km/h (2 Bft) N-NW 337 1,7 C 0,9 C
29.11.2012 14:46 3,7 C 87 % 998,1 hPa 0,0 l/m 5,8 km/h (2 Bft) N-NO 22 1,7 C 2,3 C
29.11.2012 14:51 3,6 C 87 % 998,1 hPa 0,0 l/m 11,2 km/h (2 Bft) N-NO 22 1,6 C 0,7 C
29.11.2012 14:56 3,7 C 87 % 998,2 hPa 0,0 l/m 16,9 km/h (3 Bft) N-NO 22 1,7 C -0,1 C
29.11.2012 15:01 3,8 C 88 % 998,2 hPa 0,0 l/m 14,4 km/h (3 Bft) NO 45 2,0 C 0,4 C
29.11.2012 15:06 3,8 C 88 % 998,2 hPa 0,0 l/m 9,7 km/h (2 Bft) N-NO 22 2,0 C 1,3 C
29.11.2012 15:11 3,8 C 88 % 998,3 hPa 0,0 l/m 11,2 km/h (2 Bft) N 360 2,0 C 1,0 C
29.11.2012 15:16 3,8 C 88 % 998,2 hPa 0,0 l/m 20,9 km/h (4 Bft) N-NO 22 2,0 C -0,6 C
29.11.2012 15:21 3,8 C 88 % 998,2 hPa 0,0 l/m 8,3 km/h (2 Bft) NO 45 2,0 C 1,6 C
29.11.2012 15:26 3,8 C 88 % 998,2 hPa 0,0 l/m 6,5 km/h (2 Bft) N 360 2,0 C 2,2 C
29.11.2012 15:31 3,8 C 87 % 998,3 hPa 0,0 l/m 6,5 km/h (2 Bft) N 360 1,8 C 2,2 C
29.11.2012 15:36 3,8 C 87 % 998,3 hPa 0,0 l/m 18,4 km/h (3 Bft) N-NO 22 1,8 C -0,2 C
29.11.2012 15:41 3,9 C 87 % 998,3 hPa 0,0 l/m 10,8 km/h (2 Bft) N-NO 22 1,9 C 1,2 C
29.11.2012 15:46 3,9 C 86 % 998,4 hPa 0,0 l/m 10,1 km/h (2 Bft) N-NO 22 1,8 C 1,3 C
29.11.2012 15:51 3,9 C 86 % 998,4 hPa 0,0 l/m 16,6 km/h (3 Bft) N-NO 22 1,8 C 0,1 C
29.11.2012 15:56 3,9 C 86 % 998,3 hPa 0,0 l/m 10,1 km/h (2 Bft) N 360 1,8 C 1,3 C
29.11.2012 16:01 3,9 C 86 % 998,3 hPa 0,0 l/m 9,4 km/h (2 Bft) N-NO 22 1,8 C 1,5 C
29.11.2012 16:06 3,9 C 86 % 998,4 hPa 0,0 l/m 10,1 km/h (2 Bft) N 360 1,8 C 1,3 C
29.11.2012 16:11 3,9 C 86 % 998,6 hPa 0,0 l/m 12,6 km/h (3 Bft) N-NO 22 1,8 C 0,8 C
29.11.2012 16:16 3,9 C 86 % 998,6 hPa 0,0 l/m 8,6 km/h (2 Bft) NO 45 1,8 C 1,7 C
29.11.2012 16:21 3,9 C 86 % 998,7 hPa 0,0 l/m 7,6 km/h (2 Bft) N 360 1,8 C 2,0 C
29.11.2012 16:26 3,9 C 87 % 998,7 hPa 0,0 l/m 11,2 km/h (2 Bft) NO 45 1,9 C 1,1 C
29.11.2012 16:31 3,8 C 87 % 998,8 hPa 0,0 l/m 11,9 km/h (2 Bft) N 360 1,8 C 0,8 C
29.11.2012 16:36 3,8 C 87 % 998,7 hPa 0,0 l/m 16,9 km/h (3 Bft) N-NO 22 1,8 C -0,0 C
29.11.2012 16:41 3,6 C 87 % 998,6 hPa 0,0 l/m 6,1 km/h (2 Bft) N-NO 22 1,6 C 2,1 C
29.11.2012 16:46 3,6 C 87 % 998,7 hPa 0,0 l/m 13,0 km/h (3 Bft) N 360 1,6 C 0,4 C
29.11.2012 16:51 3,6 C 87 % 998,7 hPa 0,0 l/m 12,2 km/h (2 Bft) NO 45 1,6 C 0,5 C
29.11.2012 16:56 3,6 C 86 % 998,7 hPa 0,0 l/m 18,4 km/h (3 Bft) N-NO 22 1,5 C -0,5 C
29.11.2012 17:01 3,5 C 86 % 998,7 hPa 0,0 l/m 15,1 km/h (3 Bft) N-NO 22 1,4 C -0,1 C
29.11.2012 17:06 3,5 C 85 % 998,8 hPa 0,0 l/m 12,2 km/h (2 Bft) N-NW 337 1,2 C 0,4 C
29.11.2012 17:11 3,4 C 85 % 998,7 hPa 0,0 l/m 13,7 km/h (3 Bft) N-NW 337 1,1 C -0,0 C
29.11.2012 17:16 3,4 C 85 % 998,7 hPa 0,0 l/m 16,6 km/h (3 Bft) N 360 1,1 C -0,5 C
29.11.2012 17:21 3,3 C 85 % 998,7 hPa 0,0 l/m 7,9 km/h (2 Bft) NO 45 1,0 C 1,2 C
29.11.2012 17:26 3,3 C 84 % 998,7 hPa 0,0 l/m 18,4 km/h (3 Bft) N-NO 22 0,9 C -0,9 C
29.11.2012 17:31 3,3 C 85 % 998,9 hPa 0,0 l/m 18,7 km/h (3 Bft) N-NO 22 1,0 C -0,9 C
29.11.2012 17:36 3,3 C 84 % 999,0 hPa 0,0 l/m 15,5 km/h (3 Bft) N-NO 22 0,9 C -0,4 C
29.11.2012 17:41 3,3 C 84 % 999,0 hPa 0,0 l/m 15,1 km/h (3 Bft) N-NO 22 0,9 C -0,4 C
29.11.2012 17:46 3,2 C 84 % 999,2 hPa 0,0 l/m 9,4 km/h (2 Bft) N 360 0,8 C 0,7 C
29.11.2012 17:51 3,2 C 84 % 999,1 hPa 0,0 l/m 11,2 km/h (2 Bft) N 360 0,8 C 0,2 C
29.11.2012 17:56 3,2 C 84 % 999,3 hPa 0,0 l/m 18,7 km/h (3 Bft) N-NO 22 0,8 C -1,0 C
29.11.2012 18:01 3,1 C 85 % 999,3 hPa 0,0 l/m 7,6 km/h (2 Bft) N 360 0,8 C 1,0 C
29.11.2012 18:06 3,1 C 87 % 999,2 hPa 0,0 l/m 10,4 km/h (2 Bft) N-NO 22 1,2 C 0,3 C
29.11.2012 18:11 3,0 C 87 % 999,1 hPa 0,0 l/m 11,9 km/h (2 Bft) N-NO 22 1,1 C -0,1 C
29.11.2012 18:16 2,9 C 87 % 999,2 hPa 0,0 l/m 13,3 km/h (3 Bft) NO 45 1,0 C -0,5 C
29.11.2012 18:21 2,9 C 87 % 999,1 hPa 0,0 l/m 17,3 km/h (3 Bft) NO 45 1,0 C -1,2 C
29.11.2012 18:26 2,9 C 87 % 999,1 hPa 0,0 l/m 23,0 km/h (4 Bft) N-NW 337 1,0 C -2,0 C
29.11.2012 18:31 2,9 C 87 % 999,3 hPa 0,0 l/m 11,5 km/h (2 Bft) N 360 1,0 C -0,2 C
29.11.2012 18:36 2,8 C 87 % 999,3 hPa 0,0 l/m 13,0 km/h (3 Bft) NO 45 0,9 C -0,6 C
29.11.2012 18:41 2,8 C 86 % 999,3 hPa 0,0 l/m 14,8 km/h (3 Bft) NO 45 0,7 C -0,9 C
29.11.2012 18:46 2,8 C 86 % 999,3 hPa 0,0 l/m 16,6 km/h (3 Bft) N-NO 22 0,7 C -1,2 C
29.11.2012 18:51 2,8 C 86 % 999,4 hPa 0,0 l/m 10,4 km/h (2 Bft) NO 45 0,7 C -0,1 C
29.11.2012 18:56 2,8 C 87 % 999,3 hPa 0,0 l/m 9,0 km/h (2 Bft) N-NO 22 0,9 C 0,3 C
29.11.2012 19:01 2,8 C 87 % 999,4 hPa 0,0 l/m 10,8 km/h (2 Bft) N 360 0,9 C -0,2 C
29.11.2012 19:06 2,8 C 87 % 999,5 hPa 0,0 l/m 8,6 km/h (2 Bft) O-NO 67 0,9 C 0,4 C
29.11.2012 19:11 2,8 C 87 % 999,3 hPa 0,0 l/m 11,9 km/h (2 Bft) N-NO 22 0,9 C -0,4 C
29.11.2012 19:16 2,8 C 87 % 999,5 hPa 0,0 l/m 15,5 km/h (3 Bft) N-NO 22 0,9 C -1,0 C
29.11.2012 19:21 2,8 C 86 % 999,6 hPa 0,0 l/m 10,4 km/h (2 Bft) N-NO 22 0,7 C -0,1 C
29.11.2012 19:26 2,8 C 86 % 999,5 hPa 0,0 l/m 8,6 km/h (2 Bft) N-NO 22 0,7 C 0,4 C
29.11.2012 19:31 2,8 C 86 % 999,6 hPa 0,0 l/m 12,2 km/h (2 Bft) N-NO 22 0,7 C -0,4 C
29.11.2012 19:36 2,8 C 86 % 999,6 hPa 0,0 l/m 12,2 km/h (2 Bft) NO 45 0,7 C -0,4 C
29.11.2012 19:41 2,8 C 86 % 999,6 hPa 0,0 l/m 13,3 km/h (3 Bft) N 360 0,7 C -0,7 C
29.11.2012 19:46 2,8 C 86 % 999,5 hPa 0,0 l/m 10,4 km/h (2 Bft) N-NO 22 0,7 C -0,1 C
29.11.2012 19:51 2,8 C 86 % 999,7 hPa 0,0 l/m 7,6 km/h (2 Bft) N-NO 22 0,7 C 0,7 C
29.11.2012 19:56 2,8 C 86 % 999,8 hPa 0,0 l/m 16,9 km/h (3 Bft) N-NO 22 0,7 C -1,3 C
29.11.2012 20:01 2,7 C 86 % 999,8 hPa 0,0 l/m 11,2 km/h (2 Bft) N 360 0,6 C -0,4 C
29.11.2012 20:06 2,7 C 86 % 999,8 hPa 0,0 l/m 13,7 km/h (3 Bft) NO 45 0,6 C -0,9 C
29.11.2012 20:11 2,8 C 86 % 999,8 hPa 0,0 l/m 6,1 km/h (2 Bft) N-NO 22 0,7 C 1,2 C
29.11.2012 20:16 2,8 C 86 % 999,8 hPa 0,0 l/m 16,6 km/h (3 Bft) N 360 0,7 C -1,2 C
29.11.2012 20:21 2,8 C 85 % 999,9 hPa 0,0 l/m 6,5 km/h (2 Bft) N-NO 22 0,5 C 1,0 C
29.11.2012 20:26 2,8 C 85 % 999,9 hPa 0,0 l/m 11,2 km/h (2 Bft) N-NO 22 0,5 C -0,2 C
29.11.2012 20:31 2,8 C 85 % 1000,0 hPa 0,0 l/m 13,3 km/h (3 Bft) N 360 0,5 C -0,7 C
29.11.2012 20:36 2,8 C 85 % 1000,1 hPa 0,0 l/m 5,8 km/h (2 Bft) O-SO 112 0,5 C 1,3 C
29.11.2012 20:41 2,8 C 85 % 999,9 hPa 0,0 l/m 11,9 km/h (2 Bft) N-NO 22 0,5 C -0,4 C
29.11.2012 20:46 2,8 C 84 % 1000,1 hPa 0,0 l/m 7,2 km/h (2 Bft) N-NW 337 0,4 C 0,8 C
29.11.2012 20:51 2,8 C 84 % 1000,0 hPa 0,0 l/m 8,3 km/h (2 Bft) N 360 0,4 C 0,5 C
29.11.2012 20:56 2,7 C 84 % 1000,0 hPa 0,0 l/m 11,9 km/h (2 Bft) NO 45 0,3 C -0,5 C
29.11.2012 21:01 2,7 C 84 % 1000,1 hPa 0,0 l/m 8,3 km/h (2 Bft) N-NO 22 0,3 C 0,3 C
29.11.2012 21:06 2,6 C 84 % 1000,1 hPa 0,0 l/m 6,1 km/h (2 Bft) NO 45 0,2 C 0,9 C
29.11.2012 21:11 2,6 C 84 % 1000,1 hPa 0,0 l/m 9,7 km/h (2 Bft) N-NO 22 0,2 C -0,1 C
29.11.2012 21:16 2,7 C 84 % 1000,1 hPa 0,0 l/m 14,8 km/h (3 Bft) N 360 0,3 C -1,1 C
29.11.2012 21:21 2,7 C 84 % 1000,4 hPa 0,0 l/m 8,3 km/h (2 Bft) N 360 0,3 C 0,3 C
29.11.2012 21:26 2,7 C 84 % 1000,2 hPa 0,0 l/m 9,4 km/h (2 Bft) N 360 0,3 C 0,1 C
29.11.2012 21:31 2,7 C 84 % 1000,2 hPa 0,0 l/m 10,8 km/h (2 Bft) NW 315 0,3 C -0,3 C
29.11.2012 21:36 2,6 C 85 % 1000,0 hPa 0,0 l/m 6,1 km/h (2 Bft) NO 45 0,3 C 0,9 C
29.11.2012 21:41 2,6 C 85 % 1000,1 hPa 0,0 l/m 7,6 km/h (2 Bft) N-NO 22 0,3 C 0,4 C
29.11.2012 21:46 2,6 C 85 % 1000,1 hPa 0,0 l/m 9,4 km/h (2 Bft) O-NO 67 0,3 C -0,1 C
29.11.2012 21:51 2,5 C 85 % 1000,1 hPa 0,0 l/m 6,5 km/h (2 Bft) N-NO 22 0,2 C 0,7 C
29.11.2012 21:56 2,5 C 85 % 1000,3 hPa 0,0 l/m 5,8 km/h (2 Bft) N-NW 337 0,2 C 0,9 C
29.11.2012 22:01 2,6 C 85 % 1000,2 hPa 0,0 l/m 6,1 km/h (2 Bft) N-NO 22 0,3 C 0,9 C
29.11.2012 22:06 2,6 C 85 % 1000,3 hPa 0,0 l/m 11,9 km/h (2 Bft) NO 45 0,3 C -0,6 C
29.11.2012 22:11 2,6 C 85 % 1000,4 hPa 0,0 l/m 10,4 km/h (2 Bft) N-NO 22 0,3 C -0,3 C
29.11.2012 22:16 2,6 C 85 % 1000,4 hPa 0,0 l/m 11,5 km/h (2 Bft) N-NW 337 0,3 C -0,5 C
29.11.2012 22:21 2,6 C 85 % 1000,4 hPa 0,0 l/m 7,2 km/h (2 Bft) NW 315 0,3 C 0,6 C
29.11.2012 22:26 2,6 C 85 % 1000,5 hPa 0,0 l/m 10,4 km/h (2 Bft) NW 315 0,3 C -0,3 C
29.11.2012 22:31 2,6 C 86 % 1000,4 hPa 0,0 l/m 9,7 km/h (2 Bft) NW 315 0,5 C -0,1 C
29.11.2012 22:36 2,5 C 86 % 1000,5 hPa 0,0 l/m 8,3 km/h (2 Bft) W-SW 247 0,4 C 0,1 C
29.11.2012 22:41 2,5 C 86 % 1000,7 hPa 0,0 l/m 5,8 km/h (2 Bft) N-NW 337 0,4 C 0,9 C
29.11.2012 22:46 2,4 C 86 % 1000,7 hPa 0,0 l/m 4,3 km/h (1 Bft) N-NO 22 0,3 C 2,4 C
29.11.2012 22:51 2,4 C 87 % 1000,8 hPa 0,0 l/m 4,7 km/h (1 Bft) N-NW 337 0,5 C 1,3 C
29.11.2012 22:56 2,4 C 87 % 1000,7 hPa 0,0 l/m 4,7 km/h (1 Bft) NW 315 0,5 C 1,3 C
29.11.2012 23:01 2,4 C 87 % 1000,8 hPa 0,0 l/m 9,7 km/h (2 Bft) N-NW 337 0,5 C -0,4 C
29.11.2012 23:06 2,4 C 87 % 1001,0 hPa 0,0 l/m 10,8 km/h (2 Bft) NW 315 0,5 C -0,6 C
29.11.2012 23:11 2,4 C 87 % 1000,9 hPa 0,0 l/m 7,2 km/h (2 Bft) W-SW 247 0,5 C 0,3 C
29.11.2012 23:16 2,4 C 87 % 1000,8 hPa 0,0 l/m 9,0 km/h (2 Bft) N-NW 337 0,5 C -0,2 C
29.11.2012 23:21 2,3 C 88 % 1000,8 hPa 0,0 l/m 4,3 km/h (1 Bft) NW 315 0,5 C 2,3 C
29.11.2012 23:26 2,3 C 88 % 1000,9 hPa 0,0 l/m 4,0 km/h (1 Bft) NW 315 0,5 C 2,3 C
29.11.2012 23:31 2,4 C 88 % 1000,9 hPa 0,0 l/m 6,1 km/h (2 Bft) N 360 0,6 C 0,7 C
29.11.2012 23:36 2,4 C 88 % 1000,9 hPa 0,0 l/m 7,2 km/h (2 Bft) W-NW 292 0,6 C 0,3 C
29.11.2012 23:41 2,4 C 88 % 1000,9 hPa 0,0 l/m 5,0 km/h (1 Bft) N 360 0,6 C 1,1 C
29.11.2012 23:46 2,4 C 88 % 1001,1 hPa 0,0 l/m 6,1 km/h (2 Bft) W-NW 292 0,6 C 0,7 C
29.11.2012 23:51 2,4 C 88 % 1001,1 hPa 0,0 l/m 7,9 km/h (2 Bft) W 270 0,6 C 0,1 C
29.11.2012 23:56 2,4 C 88 % 1001,1 hPa 0,0 l/m 11,9 km/h (2 Bft) W-NW 292 0,6 C -0,9 C
_ Min-Zeit 23:21 17:26 13:26 - 01:26 - - 21:06 18:26
Minimum _ 2,3 C 84 % 997,8 hPa - 2,2 km/h (1 Bft) - - 0,2 C -2,0 C
_ Max-Zeit 04:26 00:36 00:01 00:01 11:56 - - 04:26 04:06
Maximum _ 4,9 C 93 % 1003,0 hPa 0,0 l/m 27,0 km/h
N-NO (4 Bft)
- - 3,9 C 4,8 C
Durchschnitt _ 3,8 C 89 % 999,5 hPa #0,0 l/m 9,9 km/h (2 Bft) N-NO - 2,1 C 1,5 C
(c) by David Heller